sensor_id;sensor_type;location;lat;lon;timestamp;pressure;altitude;pressure_sealevel;temperature;humidity
33432;BME280;35187;31.882;34.828;2023-06-10T00:02:01;99730;;;25;48
33432;BME280;35187;31.882;34.828;2023-06-10T00:04:29;99740;;;25;48
33432;BME280;35187;31.882;34.828;2023-06-10T00:06:58;99740;;;25;48
33432;BME280;35187;31.882;34.828;2023-06-10T00:09:27;99740;;;25;48
33432;BME280;35187;31.882;34.828;2023-06-10T00:11:56;99740;;;25;48
33432;BME280;35187;31.882;34.828;2023-06-10T00:14:24;99740;;;25;48
33432;BME280;35187;31.882;34.828;2023-06-10T00:16:53;99730;;;25;48
33432;BME280;35187;31.882;34.828;2023-06-10T00:19:23;99730;;;25;48
33432;BME280;35187;31.882;34.828;2023-06-10T00:21:52;99730;;;25;48
33432;BME280;35187;31.882;34.828;2023-06-10T00:24:21;99740;;;25;48
33432;BME280;35187;31.882;34.828;2023-06-10T00:26:49;99740;;;25;48
33432;BME280;35187;31.882;34.828;2023-06-10T00:29:18;99740;;;25;48
33432;BME280;35187;31.882;34.828;2023-06-10T00:31:48;99750;;;25;48
33432;BME280;35187;31.882;34.828;2023-06-10T00:34:17;99740;;;25;48
33432;BME280;35187;31.882;34.828;2023-06-10T00:36:46;99750;;;25;48
33432;BME280;35187;31.882;34.828;2023-06-10T00:39:14;99750;;;25;49
33432;BME280;35187;31.882;34.828;2023-06-10T00:41:43;99750;;;25;49
33432;BME280;35187;31.882;34.828;2023-06-10T00:44:13;99750;;;25;49
33432;BME280;35187;31.882;34.828;2023-06-10T00:46:42;99750;;;25;49
33432;BME280;35187;31.882;34.828;2023-06-10T00:49:10;99750;;;25;49
33432;BME280;35187;31.882;34.828;2023-06-10T00:51:39;99760;;;25;49
33432;BME280;35187;31.882;34.828;2023-06-10T00:54:09;99760;;;25;50
33432;BME280;35187;31.882;34.828;2023-06-10T00:56:37;99760;;;25;50
33432;BME280;35187;31.882;34.828;2023-06-10T00:59:10;99760;;;24;50
33432;BME280;35187;31.882;34.828;2023-06-10T01:01:38;99770;;;25;50
33432;BME280;35187;31.882;34.828;2023-06-10T01:04:08;99770;;;25;50
33432;BME280;35187;31.882;34.828;2023-06-10T01:06:44;99770;;;25;50
33432;BME280;35187;31.882;34.828;2023-06-10T01:09:23;99770;;;25;50
33432;BME280;35187;31.882;34.828;2023-06-10T01:12:08;99780;;;25;50
33432;BME280;35187;31.882;34.828;2023-06-10T01:14:39;99780;;;25;50
33432;BME280;35187;31.882;34.828;2023-06-10T01:17:08;99780;;;25;50
33432;BME280;35187;31.882;34.828;2023-06-10T01:19:37;99780;;;25;50
33432;BME280;35187;31.882;34.828;2023-06-10T01:22:06;99780;;;25;50
33432;BME280;35187;31.882;34.828;2023-06-10T01:24:34;99780;;;25;50
33432;BME280;35187;31.882;34.828;2023-06-10T01:27:08;99780;;;25;50
33432;BME280;35187;31.882;34.828;2023-06-10T01:29:45;99780;;;25;50
33432;BME280;35187;31.882;34.828;2023-06-10T01:32:17;99780;;;25;51
33432;BME280;35187;31.882;34.828;2023-06-10T01:34:48;99780;;;25;51
33432;BME280;35187;31.882;34.828;2023-06-10T01:37:19;99790;;;24;51
33432;BME280;35187;31.882;34.828;2023-06-10T01:39:49;99790;;;25;51
33432;BME280;35187;31.882;34.828;2023-06-10T01:42:19;99790;;;25;51
33432;BME280;35187;31.882;34.828;2023-06-10T01:44:49;99800;;;24;51
33432;BME280;35187;31.882;34.828;2023-06-10T01:47:18;99800;;;25;51
33432;BME280;35187;31.882;34.828;2023-06-10T01:49:47;99810;;;25;51
33432;BME280;35187;31.882;34.828;2023-06-10T01:52:16;99820;;;25;51
33432;BME280;35187;31.882;34.828;2023-06-10T01:54:45;99820;;;25;51
33432;BME280;35187;31.882;34.828;2023-06-10T01:57:14;99820;;;25;51
33432;BME280;35187;31.882;34.828;2023-06-10T01:59:43;99820;;;25;51
33432;BME280;35187;31.882;34.828;2023-06-10T02:02:12;99820;;;25;52
33432;BME280;35187;31.882;34.828;2023-06-10T02:04:40;99820;;;25;51
33432;BME280;35187;31.882;34.828;2023-06-10T02:07:09;99830;;;25;51
33432;BME280;35187;31.882;34.828;2023-06-10T02:09:38;99830;;;25;52
33432;BME280;35187;31.882;34.828;2023-06-10T02:12:07;99830;;;25;52
33432;BME280;35187;31.882;34.828;2023-06-10T02:14:36;99830;;;25;52
33432;BME280;35187;31.882;34.828;2023-06-10T02:17:05;99830;;;25;52
33432;BME280;35187;31.882;34.828;2023-06-10T02:19:35;99830;;;25;52
33432;BME280;35187;31.882;34.828;2023-06-10T02:22:04;99830;;;25;52
33432;BME280;35187;31.882;34.828;2023-06-10T02:24:33;99830;;;25;52
33432;BME280;35187;31.882;34.828;2023-06-10T02:27:02;99840;;;25;52
33432;BME280;35187;31.882;34.828;2023-06-10T02:29:31;99840;;;25;52
33432;BME280;35187;31.882;34.828;2023-06-10T02:31:59;99840;;;25;52
33432;BME280;35187;31.882;34.828;2023-06-10T02:34:28;99840;;;25;52
33432;BME280;35187;31.882;34.828;2023-06-10T02:36:57;99840;;;25;52
33432;BME280;35187;31.882;34.828;2023-06-10T02:39:26;99840;;;25;52
33432;BME280;35187;31.882;34.828;2023-06-10T02:41:55;99850;;;25;52
33432;BME280;35187;31.882;34.828;2023-06-10T02:44:23;99850;;;25;52
33432;BME280;35187;31.882;34.828;2023-06-10T02:46:52;99850;;;25;52
33432;BME280;35187;31.882;34.828;2023-06-10T02:49:21;99850;;;25;52
33432;BME280;35187;31.882;34.828;2023-06-10T02:51:50;99850;;;25;52
33432;BME280;35187;31.882;34.828;2023-06-10T02:54:19;99850;;;25;52
33432;BME280;35187;31.882;34.828;2023-06-10T02:56:48;99860;;;25;52
33432;BME280;35187;31.882;34.828;2023-06-10T02:59:17;99860;;;25;52
33432;BME280;35187;31.882;34.828;2023-06-10T03:01:46;99870;;;25;53
33432;BME280;35187;31.882;34.828;2023-06-10T03:04:15;99870;;;25;52
33432;BME280;35187;31.882;34.828;2023-06-10T03:06:44;99880;;;25;53
33432;BME280;35187;31.882;34.828;2023-06-10T03:09:13;99890;;;25;53
33432;BME280;35187;31.882;34.828;2023-06-10T03:11:41;99890;;;25;53
33432;BME280;35187;31.882;34.828;2023-06-10T03:14:10;99890;;;25;52
33432;BME280;35187;31.882;34.828;2023-06-10T03:16:39;99890;;;25;47
33432;BME280;35187;31.882;34.828;2023-06-10T03:19:08;99900;;;24;46
33432;BME280;35187;31.882;34.828;2023-06-10T03:21:37;99900;;;24;50
33432;BME280;35187;31.882;34.828;2023-06-10T03:24:06;99900;;;24;53
33432;BME280;35187;31.882;34.828;2023-06-10T03:26:35;99900;;;24;51
33432;BME280;35187;31.882;34.828;2023-06-10T03:29:04;99900;;;24;48
33432;BME280;35187;31.882;34.828;2023-06-10T03:31:33;99900;;;24;52
33432;BME280;35187;31.882;34.828;2023-06-10T03:34:02;99910;;;24;54
33432;BME280;35187;31.882;34.828;2023-06-10T03:36:31;99910;;;24;56
33432;BME280;35187;31.882;34.828;2023-06-10T03:38:59;99910;;;24;51
33432;BME280;35187;31.882;34.828;2023-06-10T03:41:28;99920;;;24;50
33432;BME280;35187;31.882;34.828;2023-06-10T03:43:57;99920;;;24;53
33432;BME280;35187;31.882;34.828;2023-06-10T03:46:26;99920;;;24;56
33432;BME280;35187;31.882;34.828;2023-06-10T03:48:55;99930;;;24;57
33432;BME280;35187;31.882;34.828;2023-06-10T03:51:24;99930;;;24;50
33432;BME280;35187;31.882;34.828;2023-06-10T03:53:52;99940;;;24;51
33432;BME280;35187;31.882;34.828;2023-06-10T03:56:21;99940;;;24;54
33432;BME280;35187;31.882;34.828;2023-06-10T03:58:50;99940;;;24;57
33432;BME280;35187;31.882;34.828;2023-06-10T04:01:19;99930;;;24;57
33432;BME280;35187;31.882;34.828;2023-06-10T04:03:47;99930;;;24;54
33432;BME280;35187;31.882;34.828;2023-06-10T04:06:16;99940;;;24;54
33432;BME280;35187;31.882;34.828;2023-06-10T04:08:45;99940;;;24;54
33432;BME280;35187;31.882;34.828;2023-06-10T04:11:14;99940;;;24;54
33432;BME280;35187;31.882;34.828;2023-06-10T04:13:43;99940;;;24;54
33432;BME280;35187;31.882;34.828;2023-06-10T04:16:11;99940;;;24;54
33432;BME280;35187;31.882;34.828;2023-06-10T04:18:40;99940;;;24;54
33432;BME280;35187;31.882;34.828;2023-06-10T04:21:10;99940;;;24;54
33432;BME280;35187;31.882;34.828;2023-06-10T04:23:38;99940;;;24;53
33432;BME280;35187;31.882;34.828;2023-06-10T04:26:07;99950;;;24;53
33432;BME280;35187;31.882;34.828;2023-06-10T04:28:36;99950;;;24;53
33432;BME280;35187;31.882;34.828;2023-06-10T04:31:05;99950;;;24;53
33432;BME280;35187;31.882;34.828;2023-06-10T04:33:34;99950;;;24;53
33432;BME280;35187;31.882;34.828;2023-06-10T04:36:03;99960;;;24;53
33432;BME280;35187;31.882;34.828;2023-06-10T04:38:32;99960;;;24;50
33432;BME280;35187;31.882;34.828;2023-06-10T04:41:01;99960;;;24;47
33432;BME280;35187;31.882;34.828;2023-06-10T04:43:30;99970;;;24;51
33432;BME280;35187;31.882;34.828;2023-06-10T04:45:59;99970;;;24;54
33432;BME280;35187;31.882;34.828;2023-06-10T04:48:27;99980;;;24;56
33432;BME280;35187;31.882;34.828;2023-06-10T04:50:56;99980;;;24;51
33432;BME280;35187;31.882;34.828;2023-06-10T04:53:25;99980;;;24;50
33432;BME280;35187;31.882;34.828;2023-06-10T04:55:54;99980;;;24;54
33432;BME280;35187;31.882;34.828;2023-06-10T04:58:23;99980;;;24;56
33432;BME280;35187;31.882;34.828;2023-06-10T05:00:51;99990;;;24;55
33432;BME280;35187;31.882;34.828;2023-06-10T05:03:20;99990;;;24;49
33432;BME280;35187;31.882;34.828;2023-06-10T05:05:49;99990;;;24;54
33432;BME280;35187;31.882;34.828;2023-06-10T05:08:18;99990;;;24;56
33432;BME280;35187;31.882;34.828;2023-06-10T05:10:47;99980;;;24;57
33432;BME280;35187;31.882;34.828;2023-06-10T05:13:17;99980;;;24;56
33432;BME280;35187;31.882;34.828;2023-06-10T05:15:46;99990;;;24;49
33432;BME280;35187;31.882;34.828;2023-06-10T05:18:15;99990;;;24;54
33432;BME280;35187;31.882;34.828;2023-06-10T05:20:43;99990;;;24;54
33432;BME280;35187;31.882;34.828;2023-06-10T05:23:12;99990;;;24;54
33432;BME280;35187;31.882;34.828;2023-06-10T05:25:41;99990;;;24;54
33432;BME280;35187;31.882;34.828;2023-06-10T05:28:10;100000;;;24;53
33432;BME280;35187;31.882;34.828;2023-06-10T05:30:39;100000;;;24;53
33432;BME280;35187;31.882;34.828;2023-06-10T05:33:07;100000;;;24;53
33432;BME280;35187;31.882;34.828;2023-06-10T05:35:36;100010;;;24;53
33432;BME280;35187;31.882;34.828;2023-06-10T05:38:05;100010;;;24;53
33432;BME280;35187;31.882;34.828;2023-06-10T05:40:34;100010;;;24;53
33432;BME280;35187;31.882;34.828;2023-06-10T05:43:02;100000;;;25;52
33432;BME280;35187;31.882;34.828;2023-06-10T05:45:31;100000;;;24;52
33432;BME280;35187;31.882;34.828;2023-06-10T05:48:00;100010;;;24;52
33432;BME280;35187;31.882;34.828;2023-06-10T05:50:29;100010;;;24;52
33432;BME280;35187;31.882;34.828;2023-06-10T05:52:57;100010;;;25;52
33432;BME280;35187;31.882;34.828;2023-06-10T05:55:26;100010;;;24;52
33432;BME280;35187;31.882;34.828;2023-06-10T05:57:59;100010;;;25;52
33432;BME280;35187;31.882;34.828;2023-06-10T06:00:28;100010;;;24;52
33432;BME280;35187;31.882;34.828;2023-06-10T06:02:57;100010;;;24;52
33432;BME280;35187;31.882;34.828;2023-06-10T06:05:25;100010;;;24;52
33432;BME280;35187;31.882;34.828;2023-06-10T06:07:54;100010;;;24;52
33432;BME280;35187;31.882;34.828;2023-06-10T06:10:23;100010;;;24;52
33432;BME280;35187;31.882;34.828;2023-06-10T06:12:52;100020;;;25;52
33432;BME280;35187;31.882;34.828;2023-06-10T06:15:21;100020;;;25;52
33432;BME280;35187;31.882;34.828;2023-06-10T06:17:49;100020;;;25;53
33432;BME280;35187;31.882;34.828;2023-06-10T06:20:18;100020;;;25;53
33432;BME280;35187;31.882;34.828;2023-06-10T06:22:47;100020;;;25;53
33432;BME280;35187;31.882;34.828;2023-06-10T06:25:16;100020;;;25;53
33432;BME280;35187;31.882;34.828;2023-06-10T06:27:45;100020;;;25;53
33432;BME280;35187;31.882;34.828;2023-06-10T06:30:13;100020;;;25;53
33432;BME280;35187;31.882;34.828;2023-06-10T06:32:42;100030;;;24;53
33432;BME280;35187;31.882;34.828;2023-06-10T06:35:11;100030;;;25;53
33432;BME280;35187;31.882;34.828;2023-06-10T06:37:40;100030;;;25;53
33432;BME280;35187;31.882;34.828;2023-06-10T06:40:09;100020;;;25;53
33432;BME280;35187;31.882;34.828;2023-06-10T06:42:38;100030;;;25;53
33432;BME280;35187;31.882;34.828;2023-06-10T06:45:08;100030;;;24;53
33432;BME280;35187;31.882;34.828;2023-06-10T06:47:37;100040;;;25;53
33432;BME280;35187;31.882;34.828;2023-06-10T06:50:06;100040;;;25;53
33432;BME280;35187;31.882;34.828;2023-06-10T06:52:35;100040;;;25;53
33432;BME280;35187;31.882;34.828;2023-06-10T06:55:05;100040;;;25;53
33432;BME280;35187;31.882;34.828;2023-06-10T06:57:34;100040;;;25;53
33432;BME280;35187;31.882;34.828;2023-06-10T07:00:03;100040;;;25;53
33432;BME280;35187;31.882;34.828;2023-06-10T07:02:32;100040;;;25;53
33432;BME280;35187;31.882;34.828;2023-06-10T07:05:01;100040;;;25;53
33432;BME280;35187;31.882;34.828;2023-06-10T07:07:30;100040;;;25;53
33432;BME280;35187;31.882;34.828;2023-06-10T07:09:59;100040;;;25;53
33432;BME280;35187;31.882;34.828;2023-06-10T07:12:27;100040;;;25;54
33432;BME280;35187;31.882;34.828;2023-06-10T07:14:56;100040;;;25;54
33432;BME280;35187;31.882;34.828;2023-06-10T07:17:25;100040;;;25;53
33432;BME280;35187;31.882;34.828;2023-06-10T07:19:54;100040;;;25;53
33432;BME280;35187;31.882;34.828;2023-06-10T07:22:22;100040;;;25;53
33432;BME280;35187;31.882;34.828;2023-06-10T07:24:51;100050;;;25;53
33432;BME280;35187;31.882;34.828;2023-06-10T07:27:20;100050;;;24;54
33432;BME280;35187;31.882;34.828;2023-06-10T07:29:50;100050;;;25;54
33432;BME280;35187;31.882;34.828;2023-06-10T07:32:19;100050;;;25;54
33432;BME280;35187;31.882;34.828;2023-06-10T07:34:48;100060;;;25;54
33432;BME280;35187;31.882;34.828;2023-06-10T07:37:17;100060;;;25;54
33432;BME280;35187;31.882;34.828;2023-06-10T07:39:46;100060;;;25;54
33432;BME280;35187;31.882;34.828;2023-06-10T07:42:15;100060;;;24;55
33432;BME280;35187;31.882;34.828;2023-06-10T07:44:43;100060;;;25;55
33432;BME280;35187;31.882;34.828;2023-06-10T07:47:12;100060;;;25;55
33432;BME280;35187;31.882;34.828;2023-06-10T07:49:41;100060;;;25;55
33432;BME280;35187;31.882;34.828;2023-06-10T07:52:10;100060;;;24;55
33432;BME280;35187;31.882;34.828;2023-06-10T07:54:38;100060;;;25;55
33432;BME280;35187;31.882;34.828;2023-06-10T07:57:07;100060;;;25;55
33432;BME280;35187;31.882;34.828;2023-06-10T07:59:36;100060;;;25;55
33432;BME280;35187;31.882;34.828;2023-06-10T08:02:05;100070;;;25;55
33432;BME280;35187;31.882;34.828;2023-06-10T08:04:34;100070;;;25;55
33432;BME280;35187;31.882;34.828;2023-06-10T08:07:03;100060;;;25;55
33432;BME280;35187;31.882;34.828;2023-06-10T08:09:32;100060;;;25;55
33432;BME280;35187;31.882;34.828;2023-06-10T08:12:01;100070;;;25;55
33432;BME280;35187;31.882;34.828;2023-06-10T08:14:30;100070;;;25;55
33432;BME280;35187;31.882;34.828;2023-06-10T08:16:58;100070;;;25;55
33432;BME280;35187;31.882;34.828;2023-06-10T08:19:27;100070;;;25;55
33432;BME280;35187;31.882;34.828;2023-06-10T08:21:56;100070;;;25;55
33432;BME280;35187;31.882;34.828;2023-06-10T08:24:25;100070;;;25;55
33432;BME280;35187;31.882;34.828;2023-06-10T08:26:54;100070;;;25;55
33432;BME280;35187;31.882;34.828;2023-06-10T08:29:23;100080;;;25;55
33432;BME280;35187;31.882;34.828;2023-06-10T08:31:52;100080;;;25;55
33432;BME280;35187;31.882;34.828;2023-06-10T08:34:21;100080;;;25;55
33432;BME280;35187;31.882;34.828;2023-06-10T08:36:49;100080;;;25;55
33432;BME280;35187;31.882;34.828;2023-06-10T08:39:18;100080;;;25;55
33432;BME280;35187;31.882;34.828;2023-06-10T08:41:51;100080;;;25;55
33432;BME280;35187;31.882;34.828;2023-06-10T08:44:28;100090;;;25;55
33432;BME280;35187;31.882;34.828;2023-06-10T08:46:59;100090;;;25;55
33432;BME280;35187;31.882;34.828;2023-06-10T08:49:31;100090;;;25;55
33432;BME280;35187;31.882;34.828;2023-06-10T08:52:03;100100;;;25;55
33432;BME280;35187;31.882;34.828;2023-06-10T08:54:33;100090;;;25;55
33432;BME280;35187;31.882;34.828;2023-06-10T08:57:05;100090;;;25;55
33432;BME280;35187;31.882;34.828;2023-06-10T08:59:34;100100;;;25;55
33432;BME280;35187;31.882;34.828;2023-06-10T09:02:03;100100;;;25;55
33432;BME280;35187;31.882;34.828;2023-06-10T09:04:33;100100;;;25;55
33432;BME280;35187;31.882;34.828;2023-06-10T09:07:02;100090;;;25;55
33432;BME280;35187;31.882;34.828;2023-06-10T09:09:32;100100;;;25;55
33432;BME280;35187;31.882;34.828;2023-06-10T09:12:04;100090;;;25;55
33432;BME280;35187;31.882;34.828;2023-06-10T09:14:33;100090;;;25;55
33432;BME280;35187;31.882;34.828;2023-06-10T09:17:02;100090;;;25;55
33432;BME280;35187;31.882;34.828;2023-06-10T09:19:32;100090;;;25;55
33432;BME280;35187;31.882;34.828;2023-06-10T09:22:01;100090;;;25;55
33432;BME280;35187;31.882;34.828;2023-06-10T09:24:29;100090;;;25;55
33432;BME280;35187;31.882;34.828;2023-06-10T09:27:03;100090;;;25;55
33432;BME280;35187;31.882;34.828;2023-06-10T09:29:32;100100;;;25;55
33432;BME280;35187;31.882;34.828;2023-06-10T09:32:01;100090;;;25;55
33432;BME280;35187;31.882;34.828;2023-06-10T09:34:30;100090;;;24;55
33432;BME280;35187;31.882;34.828;2023-06-10T09:36:59;100090;;;25;55
33432;BME280;35187;31.882;34.828;2023-06-10T09:39:28;100080;;;25;55
33432;BME280;35187;31.882;34.828;2023-06-10T09:41:57;100090;;;25;55
33432;BME280;35187;31.882;34.828;2023-06-10T09:44:25;100090;;;25;55
33432;BME280;35187;31.882;34.828;2023-06-10T09:46:57;100090;;;25;55
33432;BME280;35187;31.882;34.828;2023-06-10T09:49:29;100090;;;25;55
33432;BME280;35187;31.882;34.828;2023-06-10T09:51:58;100090;;;25;55
33432;BME280;35187;31.882;34.828;2023-06-10T09:54:31;100090;;;25;55
33432;BME280;35187;31.882;34.828;2023-06-10T09:57:07;100090;;;25;55
33432;BME280;35187;31.882;34.828;2023-06-10T09:59:37;100090;;;25;55
33432;BME280;35187;31.882;34.828;2023-06-10T10:02:06;100090;;;25;55
33432;BME280;35187;31.882;34.828;2023-06-10T10:04:36;100090;;;25;55
33432;BME280;35187;31.882;34.828;2023-06-10T10:07:05;100090;;;24;55
33432;BME280;35187;31.882;34.828;2023-06-10T10:09:35;100090;;;25;55
33432;BME280;35187;31.882;34.828;2023-06-10T10:12:06;100090;;;25;55
33432;BME280;35187;31.882;34.828;2023-06-10T10:14:38;100090;;;25;55
33432;BME280;35187;31.882;34.828;2023-06-10T10:17:10;100090;;;25;55
33432;BME280;35187;31.882;34.828;2023-06-10T10:19:46;100090;;;25;55
33432;BME280;35187;31.882;34.828;2023-06-10T10:22:20;100090;;;25;55
33432;BME280;35187;31.882;34.828;2023-06-10T10:24:51;100090;;;25;55
33432;BME280;35187;31.882;34.828;2023-06-10T10:27:26;100090;;;25;55
33432;BME280;35187;31.882;34.828;2023-06-10T10:29:55;100090;;;25;55
33432;BME280;35187;31.882;34.828;2023-06-10T10:32:32;100090;;;25;55
33432;BME280;35187;31.882;34.828;2023-06-10T10:35:07;100090;;;25;55
33432;BME280;35187;31.882;34.828;2023-06-10T10:37:36;100090;;;25;55
33432;BME280;35187;31.882;34.828;2023-06-10T10:40:06;100090;;;25;55
33432;BME280;35187;31.882;34.828;2023-06-10T10:42:37;100080;;;25;55
33432;BME280;35187;31.882;34.828;2023-06-10T10:45:08;100080;;;25;55
33432;BME280;35187;31.882;34.828;2023-06-10T10:47:38;100080;;;24;55
33432;BME280;35187;31.882;34.828;2023-06-10T10:50:17;100080;;;25;55
33432;BME280;35187;31.882;34.828;2023-06-10T10:52:53;100080;;;25;55
33432;BME280;35187;31.882;34.828;2023-06-10T10:55:23;100080;;;25;55
33432;BME280;35187;31.882;34.828;2023-06-10T10:57:56;100080;;;25;55
33432;BME280;35187;31.882;34.828;2023-06-10T11:00:28;100080;;;25;55
33432;BME280;35187;31.882;34.828;2023-06-10T11:02:59;100070;;;25;55
33432;BME280;35187;31.882;34.828;2023-06-10T11:05:45;100070;;;25;55
33432;BME280;35187;31.882;34.828;2023-06-10T11:08:15;100070;;;25;55
33432;BME280;35187;31.882;34.828;2023-06-10T11:11:23;100080;;;25;55
33432;BME280;35187;31.882;34.828;2023-06-10T11:14:06;100070;;;25;55
33432;BME280;35187;31.882;34.828;2023-06-10T11:16:39;100070;;;25;55
33432;BME280;35187;31.882;34.828;2023-06-10T11:19:09;100080;;;25;55
33432;BME280;35187;31.882;34.828;2023-06-10T11:21:57;100080;;;25;55
33432;BME280;35187;31.882;34.828;2023-06-10T11:24:27;100070;;;25;55
33432;BME280;35187;31.882;34.828;2023-06-10T11:27:15;100070;;;25;55
33432;BME280;35187;31.882;34.828;2023-06-10T11:30:18;100080;;;25;54
33432;BME280;35187;31.882;34.828;2023-06-10T11:32:51;100080;;;25;54
33432;BME280;35187;31.882;34.828;2023-06-10T11:35:20;100070;;;25;54
33432;BME280;35187;31.882;34.828;2023-06-10T11:37:52;100070;;;25;54
33432;BME280;35187;31.882;34.828;2023-06-10T11:40:20;100070;;;25;54
33432;BME280;35187;31.882;34.828;2023-06-10T11:42:49;100070;;;25;54
33432;BME280;35187;31.882;34.828;2023-06-10T11:45:18;100070;;;25;54
33432;BME280;35187;31.882;34.828;2023-06-10T11:48:03;100070;;;25;54
33432;BME280;35187;31.882;34.828;2023-06-10T11:50:33;100080;;;25;54
33432;BME280;35187;31.882;34.828;2023-06-10T11:53:01;100080;;;25;54
33432;BME280;35187;31.882;34.828;2023-06-10T11:55:41;100080;;;25;54
33432;BME280;35187;31.882;34.828;2023-06-10T11:58:14;100080;;;25;54
33432;BME280;35187;31.882;34.828;2023-06-10T12:00:46;100080;;;25;54
33432;BME280;35187;31.882;34.828;2023-06-10T12:03:15;100080;;;25;54
33432;BME280;35187;31.882;34.828;2023-06-10T12:05:55;100080;;;25;54
33432;BME280;35187;31.882;34.828;2023-06-10T12:08:25;100080;;;25;54
33432;BME280;35187;31.882;34.828;2023-06-10T12:10:54;100070;;;25;54
33432;BME280;35187;31.882;34.828;2023-06-10T12:13:25;100080;;;25;54
33432;BME280;35187;31.882;34.828;2023-06-10T12:15:54;100080;;;25;54
33432;BME280;35187;31.882;34.828;2023-06-10T12:18:23;100070;;;25;54
33432;BME280;35187;31.882;34.828;2023-06-10T12:20:52;100070;;;25;52
33432;BME280;35187;31.882;34.828;2023-06-10T12:23:21;100070;;;25;46
33432;BME280;35187;31.882;34.828;2023-06-10T12:25:50;100070;;;24;50
33432;BME280;35187;31.882;34.828;2023-06-10T12:28:21;100070;;;24;53
33432;BME280;35187;31.882;34.828;2023-06-10T12:30:51;100060;;;24;47
33432;BME280;35187;31.882;34.828;2023-06-10T12:33:21;100070;;;24;52
33432;BME280;35187;31.882;34.828;2023-06-10T12:35:51;100070;;;24;55
33432;BME280;35187;31.882;34.828;2023-06-10T12:38:22;100070;;;24;52
33432;BME280;35187;31.882;34.828;2023-06-10T12:40:51;100080;;;24;51
33432;BME280;35187;31.882;34.828;2023-06-10T12:43:20;100070;;;24;55
33432;BME280;35187;31.882;34.828;2023-06-10T12:45:49;100080;;;24;57
33432;BME280;35187;31.882;34.828;2023-06-10T12:48:20;100070;;;24;51
33432;BME280;35187;31.882;34.828;2023-06-10T12:50:52;100070;;;24;53
33432;BME280;35187;31.882;34.828;2023-06-10T12:53:21;100070;;;24;56
33432;BME280;35187;31.882;34.828;2023-06-10T12:55:51;100070;;;24;57
33432;BME280;35187;31.882;34.828;2023-06-10T12:58:20;100060;;;24;50
33432;BME280;35187;31.882;34.828;2023-06-10T13:00:49;100060;;;24;54
33432;BME280;35187;31.882;34.828;2023-06-10T13:03:18;100060;;;24;57
33432;BME280;35187;31.882;34.828;2023-06-10T13:05:47;100060;;;24;59
33432;BME280;35187;31.882;34.828;2023-06-10T13:08:16;100060;;;24;52
33432;BME280;35187;31.882;34.828;2023-06-10T13:10:45;100060;;;24;54
33432;BME280;35187;31.882;34.828;2023-06-10T13:13:13;100060;;;24;57
33432;BME280;35187;31.882;34.828;2023-06-10T13:15:42;100060;;;24;59
33432;BME280;35187;31.882;34.828;2023-06-10T13:18:11;100060;;;24;55
33432;BME280;35187;31.882;34.828;2023-06-10T13:20:40;100060;;;24;53
33432;BME280;35187;31.882;34.828;2023-06-10T13:23:09;100060;;;24;57
33432;BME280;35187;31.882;34.828;2023-06-10T13:25:38;100060;;;24;59
33432;BME280;35187;31.882;34.828;2023-06-10T13:28:07;100060;;;24;59
33432;BME280;35187;31.882;34.828;2023-06-10T13:30:36;100060;;;24;52
33432;BME280;35187;31.882;34.828;2023-06-10T13:33:04;100050;;;23;56
33432;BME280;35187;31.882;34.828;2023-06-10T13:35:33;100050;;;24;59
33432;BME280;35187;31.882;34.828;2023-06-10T13:38:02;100060;;;24;60
33432;BME280;35187;31.882;34.828;2023-06-10T13:40:31;100060;;;24;59
33432;BME280;35187;31.882;34.828;2023-06-10T13:43:00;100050;;;24;54
33432;BME280;35187;31.882;34.828;2023-06-10T13:45:29;100050;;;24;54
33432;BME280;35187;31.882;34.828;2023-06-10T13:47:58;100060;;;24;54
33432;BME280;35187;31.882;34.828;2023-06-10T13:50:26;100050;;;24;54
33432;BME280;35187;31.882;34.828;2023-06-10T13:52:55;100050;;;24;54
33432;BME280;35187;31.882;34.828;2023-06-10T13:55:24;100060;;;24;55
33432;BME280;35187;31.882;34.828;2023-06-10T13:57:53;100060;;;24;55
33432;BME280;35187;31.882;34.828;2023-06-10T14:00:22;100050;;;24;55
33432;BME280;35187;31.882;34.828;2023-06-10T14:02:51;100050;;;24;55
33432;BME280;35187;31.882;34.828;2023-06-10T14:05:19;100050;;;24;55
33432;BME280;35187;31.882;34.828;2023-06-10T14:07:48;100050;;;24;50
33432;BME280;35187;31.882;34.828;2023-06-10T14:10:17;100060;;;24;52
33432;BME280;35187;31.882;34.828;2023-06-10T14:12:46;100060;;;24;56
33432;BME280;35187;31.882;34.828;2023-06-10T14:15:15;100060;;;24;59
33432;BME280;35187;31.882;34.828;2023-06-10T14:17:44;100060;;;24;53
33432;BME280;35187;31.882;34.828;2023-06-10T14:20:13;100060;;;24;53
33432;BME280;35187;31.882;34.828;2023-06-10T14:22:41;100060;;;24;57
33432;BME280;35187;31.882;34.828;2023-06-10T14:25:10;100060;;;24;59
33432;BME280;35187;31.882;34.828;2023-06-10T14:27:39;100050;;;24;59
33432;BME280;35187;31.882;34.828;2023-06-10T14:30:08;100060;;;24;52
33432;BME280;35187;31.882;34.828;2023-06-10T14:32:38;100060;;;24;56
33432;BME280;35187;31.882;34.828;2023-06-10T14:35:07;100060;;;24;59
33432;BME280;35187;31.882;34.828;2023-06-10T14:37:36;100060;;;24;61
33432;BME280;35187;31.882;34.828;2023-06-10T14:40:06;100060;;;23;57
33432;BME280;35187;31.882;34.828;2023-06-10T14:42:35;100060;;;24;53